Time;durP1;ratioP1;P1;durP2;ratioP2;P2;SDS_P1;SDS_P2;PMS_P1;PMS_P2;Temp;Humidity;BMP_temperature;BMP_pressure;BME280_temperature;BME280_humidity;BME280_pressure;Samples;Min_cycle;Max_cycle;Signal;HPM_P1;HPM_P2
2022/12/24 00:00:18;;;;;;;36.83;10.32;;;;;;;7.90;100.00;100485.53;6207741;23;20004;-88
2022/12/24 00:02:43;;;;;;;36.22;10.07;;;;;;;7.94;100.00;100497.72;6208368;23;20031;-87
2022/12/24 00:05:09;;;;;;;43.35;10.38;;;;;;;7.93;100.00;100497.75;6207721;23;20395;-86
2022/12/24 00:07:35;;;;;;;40.17;11.75;;;;;;;7.89;100.00;100489.09;6205654;23;20008;-87
2022/12/24 00:10:00;;;;;;;40.03;10.43;;;;;;;7.85;100.00;100486.66;6207652;23;20017;-88
2022/12/24 00:12:25;;;;;;;38.67;9.52;;;;;;;7.98;100.00;100501.06;6207504;23;20340;-87
2022/12/24 00:14:51;;;;;;;40.85;10.07;;;;;;;7.93;100.00;100503.06;6206800;23;20134;-87
2022/12/24 00:17:16;;;;;;;47.97;9.82;;;;;;;7.95;100.00;100501.22;6206232;23;20112;-87
2022/12/24 00:19:42;;;;;;;38.88;10.65;;;;;;;7.91;100.00;100500.50;6206409;23;20008;-87
2022/12/24 00:22:08;;;;;;;39.72;9.45;;;;;;;7.92;100.00;100509.28;6205981;23;20008;-87
2022/12/24 00:24:33;;;;;;;42.42;9.25;;;;;;;7.93;100.00;100511.88;6204028;23;20521;-87
2022/12/24 00:26:58;;;;;;;49.35;10.05;;;;;;;7.95;100.00;100507.38;6206024;23;20011;-87
2022/12/24 00:29:24;;;;;;;44.70;9.35;;;;;;;7.90;100.00;100497.88;6204751;23;20004;-88
2022/12/24 00:31:49;;;;;;;45.28;10.15;;;;;;;7.98;100.00;100509.91;6206465;23;20050;-87
2022/12/24 00:34:14;;;;;;;37.90;9.65;;;;;;;8.04;100.00;100516.69;6205184;23;20004;-87
2022/12/24 00:36:39;;;;;;;34.70;9.07;;;;;;;8.07;100.00;100519.22;6230280;23;20067;-87
2022/12/24 00:39:05;;;;;;;40.30;10.35;;;;;;;8.08;100.00;100514.75;6206312;23;20080;-87
2022/12/24 00:41:30;;;;;;;43.22;9.90;;;;;;;8.09;100.00;100522.63;6206862;23;20067;-88
2022/12/24 00:44:01;;;;;;;38.25;9.23;;;;;;;8.10;100.00;100526.16;6206057;23;20043;-87
2022/12/24 00:46:29;;;;;;;37.17;9.70;;;;;;;8.12;100.00;100540.22;6206802;23;20004;-88
2022/12/24 00:48:55;;;;;;;45.35;10.07;;;;;;;8.10;100.00;100542.91;6207242;23;20449;-87
2022/12/24 00:51:21;;;;;;;38.47;9.32;;;;;;;8.08;100.00;100547.44;6206741;23;20008;-88
2022/12/24 00:53:47;;;;;;;38.35;9.57;;;;;;;8.01;100.00;100559.22;6206193;23;20060;-88
2022/12/24 00:56:12;;;;;;;42.67;9.82;;;;;;;7.84;100.00;100536.13;6205504;23;20047;-86
2022/12/24 00:58:37;;;;;;;42.03;9.95;;;;;;;7.88;100.00;100548.31;6203948;23;20043;-87
2022/12/24 01:01:03;;;;;;;43.83;10.50;;;;;;;7.79;100.00;100542.56;6205978;23;20086;-87
2022/12/24 01:03:34;;;;;;;37.85;10.43;;;;;;;7.73;100.00;100559.56;6205492;23;20202;-88
2022/12/24 01:06:09;;;;;;;50.33;10.20;;;;;;;7.63;100.00;100552.97;6205842;23;20015;-88
2022/12/24 01:08:35;;;;;;;40.30;10.38;;;;;;;7.70;100.00;100559.72;6206092;23;20241;-87
2022/12/24 01:11:02;;;;;;;36.38;11.02;;;;;;;7.70;100.00;100570.34;6206614;23;20111;-88
2022/12/24 01:13:27;;;;;;;40.20;11.13;;;;;;;7.69;100.00;100577.44;6206110;23;20028;-88
2022/12/24 01:15:53;;;;;;;36.08;10.10;;;;;;;7.64;100.00;100570.56;6205137;23;20015;-88
2022/12/24 01:18:19;;;;;;;41.65;11.35;;;;;;;7.55;100.00;100568.34;6205575;23;20001;-87
2022/12/24 01:20:44;;;;;;;43.88;10.70;;;;;;;7.53;100.00;100588.75;6208211;23;20009;-88
2022/12/24 01:23:10;;;;;;;41.45;10.82;;;;;;;7.49;100.00;100588.84;6208497;23;20353;-88
2022/12/24 01:25:38;;;;;;;39.25;10.77;;;;;;;7.44;100.00;100582.00;6207357;23;20000;-89
2022/12/24 01:28:04;;;;;;;42.80;10.45;;;;;;;7.54;100.00;100601.91;6210344;23;20000;-88
2022/12/24 01:30:30;;;;;;;45.80;10.73;;;;;;;7.45;100.00;100587.25;6208615;23;20398;-88
2022/12/24 01:32:55;;;;;;;41.45;10.50;;;;;;;7.34;100.00;100576.25;6210503;23;20005;-88
2022/12/24 01:35:20;;;;;;;40.60;10.40;;;;;;;7.30;100.00;100587.03;6209404;23;20047;-88
2022/12/24 01:37:46;;;;;;;40.45;11.00;;;;;;;7.42;100.00;100600.63;6208684;23;20005;-87
2022/12/24 01:45:47;;;;;;;44.45;11.38;;;;;;;7.48;100.00;100610.97;6224552;23;20024;-88
2022/12/24 01:48:21;;;;;;;42.58;11.60;;;;;;;7.44;100.00;100611.13;6225599;23;20061;-88
2022/12/24 01:50:52;;;;;;;40.25;10.63;;;;;;;7.49;100.00;100625.94;6230832;23;20000;-88
2022/12/24 01:53:17;;;;;;;42.63;10.27;;;;;;;7.41;100.00;100622.75;6230913;23;20054;-87
2022/12/24 01:55:44;;;;;;;46.00;10.90;;;;;;;7.39;100.00;100619.28;6229233;23;20008;-88
2022/12/24 01:58:11;;;;;;;50.35;11.13;;;;;;;7.40;100.00;100621.03;6224257;23;20001;-86
2022/12/24 02:00:36;;;;;;;43.35;10.68;;;;;;;7.38;100.00;100612.28;6218058;23;20004;-87
2022/12/24 02:03:02;;;;;;;45.40;10.95;;;;;;;7.50;100.00;100624.16;6211561;23;20027;-87
2022/12/24 02:05:41;;;;;;;39.92;10.70;;;;;;;7.55;100.00;100629.25;6211914;23;20075;-88
2022/12/24 02:08:07;;;;;;;42.83;10.20;;;;;;;7.55;100.00;100622.16;6211798;23;20015;-86
2022/12/24 02:10:33;;;;;;;43.28;10.45;;;;;;;7.64;100.00;100628.84;6210495;23;20036;-87
2022/12/24 02:12:59;;;;;;;48.42;11.30;;;;;;;7.73;100.00;100631.09;6211754;23;20008;-87
2022/12/24 02:15:33;;;;;;;43.80;10.52;;;;;;;7.71;100.00;100630.31;6208590;23;20287;-87
2022/12/24 02:18:24;;;;;;;44.95;10.25;;;;;;;7.70;100.00;100634.78;6209865;23;20438;-87
2022/12/24 02:21:11;;;;;;;44.60;10.63;;;;;;;7.69;100.00;100645.41;6202705;23;20023;-87
2022/12/24 02:24:01;;;;;;;45.15;10.50;;;;;;;7.72;100.00;100643.50;6206988;23;20005;-88
2022/12/24 02:26:54;;;;;;;55.13;11.23;;;;;;;7.73;100.00;100634.66;6208812;23;20005;-88
2022/12/24 02:29:59;;;;;;;47.65;9.90;;;;;;;7.86;100.00;100642.94;6208565;23;20107;-88
2022/12/24 02:32:49;;;;;;;49.50;10.25;;;;;;;7.93;100.00;100648.81;6207664;23;20153;-88
2022/12/24 02:35:19;;;;;;;43.67;10.60;;;;;;;7.95;100.00;100637.22;6206390;23;20031;-87
2022/12/24 02:37:51;;;;;;;47.33;9.88;;;;;;;7.96;100.00;100660.16;6209227;23;20004;-88
2022/12/24 02:40:22;;;;;;;45.97;10.95;;;;;;;7.95;100.00;100652.28;6207402;23;20004;-87
2022/12/24 02:42:52;;;;;;;44.63;12.82;;;;;;;7.94;100.00;100655.81;6208267;23;20008;-88
2022/12/24 02:45:26;;;;;;;49.65;12.02;;;;;;;7.84;100.00;100650.06;6206386;23;20031;-87
2022/12/24 02:47:53;;;;;;;;;;;;;;;7.80;100.00;100656.44;6208359;23;20020;-87
2022/12/24 02:50:18;;;;;;;47.95;10.57;;;;;;;7.88;100.00;100656.97;6205977;22;19916;-87
2022/12/24 02:52:45;;;;;;;47.22;9.40;;;;;;;7.88;100.00;100653.47;6208119;23;20316;-86
2022/12/24 02:55:13;;;;;;;43.35;9.27;;;;;;;7.91;100.00;100667.44;6204963;23;20362;-86
2022/12/24 02:57:38;;;;;;;38.25;9.07;;;;;;;7.92;100.00;100669.16;6207279;23;20422;-88
2022/12/24 03:00:12;;;;;;;44.65;10.13;;;;;;;7.92;100.00;100658.56;6206428;23;20009;-86
2022/12/24 03:03:07;;;;;;;37.25;9.38;;;;;;;7.87;100.00;100642.00;6205806;23;20050;-87
2022/12/24 03:05:48;;;;;;;45.15;10.45;;;;;;;7.94;100.00;100647.88;6206943;23;20000;-87
2022/12/24 03:08:19;;;;;;;37.80;8.88;;;;;;;8.01;100.00;100651.13;6206757;23;19997;-87
2022/12/24 03:11:01;;;;;;;32.50;9.60;;;;;;;7.98;100.00;100666.25;6207368;23;20353;-87
2022/12/24 03:13:27;;;;;;;38.92;9.95;;;;;;;7.90;100.00;100652.47;6205632;23;20059;-86
2022/12/24 03:15:53;;;;;;;35.75;9.07;;;;;;;7.93;100.00;100668.22;6208080;23;20381;-87
2022/12/24 03:18:24;;;;;;;37.35;10.55;;;;;;;7.93;100.00;100668.22;6205121;23;20030;-87
2022/12/24 03:20:57;;;;;;;40.97;8.98;;;;;;;7.81;100.00;100647.53;6215982;23;20005;-87
2022/12/24 03:23:22;;;;;;;38.28;9.52;;;;;;;7.87;100.00;100662.34;6229046;23;20032;-87
2022/12/24 03:25:48;;;;;;;37.25;9.65;;;;;;;7.83;100.00;100655.44;6225352;23;20015;-87
2022/12/24 03:28:16;;;;;;;30.95;8.82;;;;;;;7.67;100.00;100640.19;6227085;23;20021;-88
2022/12/24 03:30:44;;;;;;;38.88;9.07;;;;;;;7.85;100.00;100670.34;6229025;23;20004;-87
2022/12/24 03:33:10;;;;;;;38.10;8.80;;;;;;;7.83;100.00;100674.00;6210014;23;20501;-87
2022/12/24 03:35:35;;;;;;;35.08;9.10;;;;;;;7.89;100.00;100682.53;6207732;23;20005;-87
2022/12/24 03:38:01;;;;;;;34.97;8.98;;;;;;;7.92;100.00;100674.47;6206930;23;20481;-86
2022/12/24 03:40:26;;;;;;;31.45;8.40;;;;;;;7.95;100.00;100681.44;6206841;23;20046;-87
2022/12/24 03:42:51;;;;;;;34.55;7.90;;;;;;;7.93;100.00;100683.25;6206353;23;20381;-87
2022/12/24 03:45:17;;;;;;;34.30;8.20;;;;;;;7.98;100.00;100682.16;6208186;23;20019;-86
2022/12/24 03:47:43;;;;;;;27.40;8.05;;;;;;;8.01;100.00;100691.75;6209704;23;20064;-86
2022/12/24 03:50:08;;;;;;;31.88;7.55;;;;;;;7.98;100.00;100682.16;6209197;23;20004;-87
2022/12/24 03:52:33;;;;;;;25.60;6.75;;;;;;;8.01;100.00;100685.59;6207977;23;20670;-87
2022/12/24 03:54:59;;;;;;;26.05;7.15;;;;;;;7.99;100.00;100686.53;6207243;23;20011;-87
2022/12/24 03:57:24;;;;;;;25.25;6.72;;;;;;;8.02;100.00;100687.31;6208500;23;20043;-88
2022/12/24 03:59:49;;;;;;;27.80;7.28;;;;;;;8.00;100.00;100684.75;6208757;23;20042;-87
2022/12/24 04:02:15;;;;;;;26.85;6.47;;;;;;;7.98;100.00;100683.91;6207969;23;20024;-86
2022/12/24 04:04:40;;;;;;;27.65;6.82;;;;;;;8.02;100.00;100700.56;6207739;23;20004;-86
2022/12/24 04:07:05;;;;;;;30.23;7.45;;;;;;;7.98;100.00;100703.38;6215022;23;20060;-86
2022/12/24 04:09:31;;;;;;;31.23;7.60;;;;;;;7.91;100.00;100699.25;6223551;23;20075;-87
2022/12/24 04:11:56;;;;;;;29.48;7.88;;;;;;;7.96;100.00;100699.91;6220180;23;20448;-88
2022/12/24 04:14:21;;;;;;;35.80;7.80;;;;;;;8.00;100.00;100705.94;6223387;23;20020;-87
2022/12/24 04:16:47;;;;;;;32.58;7.82;;;;;;;8.03;100.00;100710.25;6227381;23;19988;-88
2022/12/24 04:19:12;;;;;;;29.02;7.32;;;;;;;8.02;100.00;100704.06;6227022;23;20015;-86
2022/12/24 04:21:37;;;;;;;33.83;7.50;;;;;;;7.97;100.00;100698.97;6220950;23;20121;-87
2022/12/24 04:24:03;;;;;;;38.15;8.38;;;;;;;8.05;100.00;100716.34;6216123;23;20047;-87
2022/12/24 04:26:28;;;;;;;37.92;7.80;;;;;;;7.97;100.00;100704.28;6213597;23;20055;-87
2022/12/24 04:28:54;;;;;;;30.63;7.28;;;;;;;7.98;100.00;100716.63;6206879;23;20024;-87
2022/12/24 04:31:19;;;;;;;30.20;7.57;;;;;;;8.00;100.00;100724.50;6209671;23;20088;-87
2022/12/24 04:33:45;;;;;;;39.13;8.60;;;;;;;8.03;100.00;100726.16;6211403;23;20374;-87
2022/12/24 04:36:16;;;;;;;34.95;8.98;;;;;;;8.05;100.00;100719.84;6210234;23;20008;-87
2022/12/24 04:38:42;;;;;;;35.58;7.47;;;;;;;8.03;100.00;100724.38;6208928;23;20004;-86
2022/12/24 04:41:21;;;;;;;35.90;8.60;;;;;;;8.02;100.00;100737.66;6207341;23;19996;-87
2022/12/24 04:43:46;;;;;;;35.20;8.63;;;;;;;7.87;100.00;100726.78;6206867;23;20004;-87
2022/12/24 04:46:17;;;;;;;34.78;7.93;;;;;;;7.85;100.00;100730.41;6207387;23;20322;-87
2022/12/24 04:48:44;;;;;;;36.53;8.52;;;;;;;7.84;100.00;100734.00;6205965;23;20060;-86
2022/12/24 04:51:11;;;;;;;39.20;9.27;;;;;;;7.80;100.00;100735.06;6206407;23;20012;-86
2022/12/24 04:53:37;;;;;;;38.85;8.68;;;;;;;7.72;100.00;100722.13;6208861;23;20005;-86
2022/12/24 04:56:03;;;;;;;35.92;8.52;;;;;;;7.69;100.00;100732.84;6210823;23;20005;-87
2022/12/24 04:58:29;;;;;;;42.47;9.35;;;;;;;7.69;100.00;100714.28;6207218;23;20013;-87
2022/12/24 05:00:55;;;;;;;37.50;8.40;;;;;;;7.69;100.00;100719.59;6209869;23;20016;-86
2022/12/24 05:03:20;;;;;;;32.08;8.13;;;;;;;7.76;100.00;100736.97;6207909;23;20015;-87
2022/12/24 05:05:46;;;;;;;27.98;7.55;;;;;;;7.74;100.00;100734.38;6208493;23;20001;-87
2022/12/24 05:08:12;;;;;;;33.55;8.05;;;;;;;7.70;100.00;100734.59;6208412;23;20007;-87
2022/12/24 05:10:37;;;;;;;34.38;8.32;;;;;;;7.66;100.00;100733.84;6208256;23;20032;-86
2022/12/24 05:13:03;;;;;;;38.45;8.93;;;;;;;7.59;100.00;100744.75;6208374;23;20020;-87
2022/12/24 05:15:28;;;;;;;42.72;9.55;;;;;;;7.60;100.00;100743.81;6207806;23;20088;-87
2022/12/24 05:17:54;;;;;;;36.85;8.40;;;;;;;7.55;100.00;100756.38;6209106;23;20094;-86
2022/12/24 05:20:19;;;;;;;35.15;8.93;;;;;;;7.52;100.00;100744.09;6207163;23;20414;-86
2022/12/24 05:28:19;;;;;;;34.30;9.18;;;;;;;7.41;100.00;100731.31;6207723;23;20169;-86
2022/12/24 05:30:45;;;;;;;39.90;9.02;;;;;;;7.44;100.00;100731.19;6208785;23;20019;-86
2022/12/24 05:33:10;;;;;;;31.98;8.32;;;;;;;7.48;100.00;100740.75;6207873;23;20040;-87
2022/12/24 05:35:35;;;;;;;37.83;8.95;;;;;;;7.42;100.00;100734.81;6207656;23;20005;-87
2022/12/24 05:38:00;;;;;;;41.70;8.05;;;;;;;7.36;100.00;100746.53;6208519;23;20014;-87
2022/12/24 05:40:26;;;;;;;35.25;8.32;;;;;;;7.36;100.00;100748.31;6207142;23;20009;-87
2022/12/24 05:42:51;;;;;;;35.03;7.97;;;;;;;7.34;100.00;100758.09;6207954;23;20366;-86
2022/12/24 05:45:16;;;;;;;39.53;9.00;;;;;;;7.35;100.00;100757.16;6206943;23;20011;-86
2022/12/24 05:47:42;;;;;;;40.65;8.70;;;;;;;7.40;100.00;100779.03;6206775;23;20058;-87
2022/12/24 05:50:08;;;;;;;39.00;8.30;;;;;;;7.43;100.00;100771.81;6232401;23;20010;-87
2022/12/24 05:52:33;;;;;;;41.08;8.40;;;;;;;7.54;100.00;100778.50;6205549;23;20426;-87
2022/12/24 05:54:58;;;;;;;37.72;9.35;;;;;;;7.55;100.00;100775.78;6207078;23;20035;-87
2022/12/24 05:57:24;;;;;;;37.53;9.00;;;;;;;7.61;100.00;100770.25;6207562;23;20011;-87
2022/12/24 05:59:49;;;;;;;35.38;8.40;;;;;;;7.65;100.00;100778.91;6209592;23;20501;-87
2022/12/24 06:02:15;;;;;;;25.75;7.68;;;;;;;7.72;100.00;100786.56;6230868;23;20008;-87
2022/12/24 06:04:40;;;;;;;38.08;9.07;;;;;;;7.76;100.00;100792.59;6208470;23;20000;-87
2022/12/24 06:07:05;;;;;;;31.00;7.93;;;;;;;7.70;100.00;100793.72;6209226;23;20008;-87
2022/12/24 06:09:30;;;;;;;31.98;8.88;;;;;;;7.67;100.00;100790.31;6207879;23;20100;-87
2022/12/24 06:11:56;;;;;;;33.70;8.20;;;;;;;7.55;100.00;100788.16;6208490;23;20067;-87
2022/12/24 06:14:21;;;;;;;34.85;8.20;;;;;;;7.55;100.00;100785.50;6212322;23;20005;-87
2022/12/24 06:16:46;;;;;;;30.30;7.60;;;;;;;7.48;100.00;100780.47;6210644;23;20096;-87
2022/12/24 06:19:12;;;;;;;35.47;8.38;;;;;;;7.38;100.00;100786.16;6209679;23;20005;-87
2022/12/24 06:21:37;;;;;;;39.40;8.45;;;;;;;7.36;100.00;100803.91;6210286;23;20062;-87
2022/12/24 06:24:03;;;;;;;31.58;8.73;;;;;;;7.38;100.00;100802.91;6211077;23;20032;-87
2022/12/24 06:26:28;;;;;;;42.47;9.00;;;;;;;7.38;100.00;100791.47;6211736;23;20099;-86
2022/12/24 06:28:53;;;;;;;34.92;9.75;;;;;;;7.40;100.00;100800.22;6210876;23;20004;-87
2022/12/24 06:31:20;;;;;;;30.65;8.43;;;;;;;7.33;100.00;100809.31;6207672;23;20012;-87
2022/12/24 06:33:45;;;;;;;36.28;9.05;;;;;;;7.35;100.00;100810.97;6210700;23;20256;-87
2022/12/24 06:36:17;;;;;;;35.72;8.80;;;;;;;7.33;100.00;100799.59;6211515;23;20418;-87
2022/12/24 06:38:43;;;;;;;37.72;8.73;;;;;;;7.30;100.00;100807.63;6219226;23;20042;-86
2022/12/24 06:41:08;;;;;;;35.05;9.18;;;;;;;7.29;100.00;100811.22;6228101;23;20096;-87
2022/12/24 06:43:34;;;;;;;43.33;9.85;;;;;;;7.27;100.00;100818.34;6250458;23;20064;-87
2022/12/24 06:46:00;;;;;;;30.02;9.45;;;;;;;7.22;100.00;100828.25;6231819;23;20018;-88
2022/12/24 06:48:26;;;;;;;42.90;9.88;;;;;;;7.16;100.00;100816.09;6222731;23;20000;-86
2022/12/24 06:50:51;;;;;;;40.97;9.65;;;;;;;7.20;100.00;100812.41;6218937;23;20068;-87
2022/12/24 06:53:17;;;;;;;33.72;9.48;;;;;;;7.26;100.00;100826.34;6211190;23;20004;-86
2022/12/24 06:55:42;;;;;;;38.20;9.73;;;;;;;7.22;100.00;100828.25;6212311;23;20024;-86
2022/12/24 06:58:08;;;;;;;41.70;10.40;;;;;;;7.25;100.00;100822.84;6209252;23;20059;-86
2022/12/24 07:00:33;;;;;;;40.38;10.45;;;;;;;7.27;100.00;100833.34;6206246;23;20024;-85
2022/12/24 07:02:59;;;;;;;41.05;9.63;;;;;;;7.22;100.00;100825.59;6207489;23;20426;-85
2022/12/24 07:05:24;;;;;;;42.17;11.43;;;;;;;7.27;100.00;100836.88;6207041;23;20603;-85
2022/12/24 07:07:49;;;;;;;30.50;8.85;;;;;;;7.21;100.00;100829.16;6208225;23;20009;-87
2022/12/24 07:10:16;;;;;;;33.80;10.63;;;;;;;7.21;100.00;100840.63;6209145;23;20099;-86
2022/12/24 07:12:42;;;;;;;34.28;10.38;;;;;;;7.18;100.00;100842.50;6208093;23;20039;-84
2022/12/24 07:15:08;;;;;;;38.35;9.18;;;;;;;7.19;100.00;100844.22;6217108;23;20083;-85
2022/12/24 07:17:34;;;;;;;41.88;10.15;;;;;;;7.14;100.00;100841.75;6217230;23;20095;-86
2022/12/24 07:19:59;;;;;;;43.58;11.57;;;;;;;7.16;100.00;100842.56;6218943;23;20004;-86
2022/12/24 07:22:25;;;;;;;47.75;11.52;;;;;;;7.23;100.00;100845.84;6217844;23;20011;-87
2022/12/24 07:24:50;;;;;;;40.17;9.10;;;;;;;7.18;100.00;100842.50;6220484;23;20016;-85
2022/12/24 07:27:15;;;;;;;48.95;9.90;;;;;;;7.23;100.00;100861.72;6208926;23;20488;-87
2022/12/24 07:29:41;;;;;;;42.50;10.50;;;;;;;7.19;100.00;100860.09;6204664;23;20046;-86
2022/12/24 07:32:06;;;;;;;41.70;10.15;;;;;;;7.19;100.00;100870.69;6206087;23;20012;-87
2022/12/24 07:34:32;;;;;;;33.63;10.43;;;;;;;7.18;100.00;100864.53;6208306;23;20005;-87
2022/12/24 07:36:57;;;;;;;44.13;11.18;;;;;;;7.18;100.00;100863.69;6206587;23;20470;-86
2022/12/24 07:39:23;;;;;;;44.40;11.35;;;;;;;7.30;100.00;100871.19;6210030;23;20025;-88
2022/12/24 07:41:49;;;;;;;44.97;10.73;;;;;;;7.24;100.00;100861.69;6211791;23;20608;-87
2022/12/24 07:44:15;;;;;;;44.10;11.32;;;;;;;7.32;100.00;100865.84;6208160;23;20004;-87
2022/12/24 07:46:42;;;;;;;40.45;10.88;;;;;;;7.26;100.00;100872.22;6211477;23;20000;-87
2022/12/24 07:49:07;;;;;;;47.88;11.63;;;;;;;7.24;100.00;100879.38;6208411;23;20004;-86
2022/12/24 07:51:32;;;;;;;47.25;10.60;;;;;;;7.26;100.00;100892.53;6206803;23;20005;-86
2022/12/24 07:53:58;;;;;;;42.40;11.25;;;;;;;7.20;100.00;100890.97;6208131;23;20007;-86
2022/12/24 07:56:24;;;;;;;42.72;11.13;;;;;;;7.24;100.00;100898.75;6206137;23;20493;-86
2022/12/24 07:58:50;;;;;;;41.95;9.80;;;;;;;7.30;100.00;100902.94;6204978;23;20005;-86
2022/12/24 08:01:16;;;;;;;41.33;10.07;;;;;;;7.30;100.00;100904.75;6203632;23;20000;-86
2022/12/24 08:03:42;;;;;;;41.80;10.63;;;;;;;7.32;100.00;100917.00;6206013;23;20346;-86
2022/12/24 08:06:08;;;;;;;37.15;10.77;;;;;;;7.39;100.00;100920.28;6206295;23;20008;-85
2022/12/24 08:08:35;;;;;;;41.45;9.38;;;;;;;7.48;100.00;100920.84;6208496;23;20062;-86
2022/12/24 08:11:03;;;;;;;34.97;10.07;;;;;;;7.54;100.00;100929.47;6208004;23;20076;-86
2022/12/24 08:13:29;;;;;;;40.35;9.63;;;;;;;7.50;100.00;100926.06;6206760;23;20413;-86
2022/12/24 08:15:55;;;;;;;38.20;9.82;;;;;;;7.54;100.00;100930.31;6208615;23;20067;-85
2022/12/24 08:18:20;;;;;;;37.78;9.07;;;;;;;7.55;100.00;100932.03;6206151;23;19984;-86
2022/12/24 08:20:45;;;;;;;44.13;9.98;;;;;;;7.65;100.00;100943.16;6206687;23;20004;-85
2022/12/24 08:23:11;;;;;;;34.30;8.27;;;;;;;7.65;100.00;100944.03;6206055;23;20161;-85
2022/12/24 08:25:36;;;;;;;32.67;9.18;;;;;;;7.59;100.00;100941.59;6206631;23;20004;-86
2022/12/24 08:28:03;;;;;;;42.55;9.98;;;;;;;7.70;100.00;100957.97;6206157;23;20010;-85
2022/12/24 08:30:29;;;;;;;40.67;9.80;;;;;;;7.72;100.00;100964.06;6204471;23;20020;-85
2022/12/24 08:32:54;;;;;;;37.58;9.35;;;;;;;7.72;100.00;100956.13;6203578;23;20004;-85
2022/12/24 08:35:19;;;;;;;37.78;9.68;;;;;;;7.71;100.00;100958.84;6204914;23;20065;-84
2022/12/24 08:37:45;;;;;;;34.30;8.55;;;;;;;7.70;100.00;100957.13;6207115;23;20036;-84
2022/12/24 08:40:11;;;;;;;45.85;9.65;;;;;;;7.69;100.00;100965.97;6206241;23;20084;-85
2022/12/24 08:42:36;;;;;;;35.90;9.65;;;;;;;7.76;100.00;100963.97;6204740;23;20001;-84
2022/12/24 08:45:02;;;;;;;35.15;9.23;;;;;;;7.81;100.00;100970.81;6206606;23;20071;-85
2022/12/24 08:47:27;;;;;;;36.83;9.18;;;;;;;7.84;100.00;100969.84;6205054;23;20437;-85
2022/12/24 08:49:52;;;;;;;35.42;9.38;;;;;;;7.88;100.00;100967.03;6206524;23;20827;-85
2022/12/24 08:52:17;;;;;;;36.78;8.98;;;;;;;7.97;100.00;100979.91;6204992;23;20059;-86
2022/12/24 08:54:43;;;;;;;33.53;8.77;;;;;;;7.99;100.00;100986.03;6204656;23;20008;-86
2022/12/24 08:57:08;;;;;;;38.70;9.85;;;;;;;8.04;100.00;100979.69;6227674;23;20024;-86
2022/12/24 08:59:33;;;;;;;41.60;9.70;;;;;;;8.06;100.00;100985.78;6230833;22;20008;-85
2022/12/24 09:01:59;;;;;;;34.97;9.63;;;;;;;8.07;100.00;100990.16;6229057;23;20004;-85
2022/12/24 09:04:24;;;;;;;35.05;9.02;;;;;;;8.11;100.00;100989.13;6215411;23;20032;-86
2022/12/24 09:06:49;;;;;;;35.45;9.38;;;;;;;8.13;100.00;100988.16;6211934;23;20004;-86
2022/12/24 09:09:14;;;;;;;41.10;9.95;;;;;;;8.16;100.00;100995.13;6208407;23;20000;-83
2022/12/24 09:11:40;;;;;;;40.20;10.15;;;;;;;8.17;100.00;100999.50;6205198;23;20035;-86
2022/12/24 09:14:05;;;;;;;41.30;9.50;;;;;;;8.16;100.00;101005.75;6206695;23;20139;-86
2022/12/24 09:16:31;;;;;;;34.03;9.27;;;;;;;8.21;100.00;101014.38;6209295;23;20004;-86
2022/12/24 09:18:57;;;;;;;35.33;9.60;;;;;;;8.23;100.00;101015.16;6209174;23;20004;-89
2022/12/24 09:21:22;;;;;;;38.80;10.20;;;;;;;8.24;100.00;101011.63;6208031;23;20075;-88
2022/12/24 09:23:47;;;;;;;38.70;9.35;;;;;;;8.31;100.00;101021.03;6205176;23;20001;-86
2022/12/24 09:26:22;;;;;;;39.80;9.85;;;;;;;8.35;100.00;101038.56;6206649;23;20001;-91
2022/12/24 09:28:49;;;;;;;42.83;9.80;;;;;;;8.38;100.00;101040.28;6206504;23;20055;-85
2022/12/24 09:31:14;;;;;;;42.08;9.30;;;;;;;8.43;100.00;101044.47;6202664;23;20022;-85
2022/12/24 09:33:42;;;;;;;40.17;10.48;;;;;;;8.50;100.00;101047.78;6207395;23;20008;-85
2022/12/24 09:36:07;;;;;;;40.80;9.80;;;;;;;8.57;100.00;101059.88;6206804;23;20008;-85
2022/12/24 09:38:33;;;;;;;31.70;9.73;;;;;;;8.60;100.00;101053.56;6206329;23;20375;-87
2022/12/24 09:40:59;;;;;;;44.28;10.90;;;;;;;8.61;100.00;101057.94;6206959;23;20005;-87
2022/12/24 09:43:32;;;;;;;35.60;9.25;;;;;;;8.69;100.00;101043.47;6209090;23;20169;-88
2022/12/24 09:46:04;;;;;;;36.95;10.25;;;;;;;8.73;100.00;101046.84;6212425;23;20004;-86
2022/12/24 09:48:34;;;;;;;39.47;10.68;;;;;;;8.87;100.00;101049.81;6211245;23;20418;-87
2022/12/24 09:51:26;;;;;;;38.85;10.55;;;;;;;8.97;100.00;101055.63;6208844;23;20012;-86
2022/12/24 09:53:58;;;;;;;40.80;10.30;;;;;;;9.02;100.00;101068.69;6192310;23;20057;-88
2022/12/24 09:56:32;;;;;;;36.58;10.73;;;;;;;8.95;100.00;101068.97;6206916;23;20007;-84
2022/12/24 09:59:00;;;;;;;32.72;9.75;;;;;;;8.89;100.00;101071.84;6208880;23;20015;-83
2022/12/24 10:01:28;;;;;;;31.73;9.48;;;;;;;8.83;100.00;101080.06;6206918;23;20083;-88
2022/12/24 10:03:55;;;;;;;36.47;9.82;;;;;;;8.81;100.00;101076.59;6208910;23;20075;-88
2022/12/24 10:06:26;;;;;;;39.85;9.43;;;;;;;8.78;100.00;101070.53;6206015;23;20013;-86
2022/12/24 10:09:13;;;;;;;37.90;10.15;;;;;;;8.77;100.00;101090.06;6207582;23;20032;-86
2022/12/24 10:11:46;;;;;;;33.25;9.43;;;;;;;8.70;100.00;101078.84;6206138;23;20774;-87
2022/12/24 10:14:32;;;;;;;36.47;10.95;;;;;;;8.64;100.00;101084.38;6207005;23;20032;-86
2022/12/24 10:17:35;;;;;;;43.10;10.80;;;;;;;8.65;100.00;101081.66;6207066;23;20032;-86
2022/12/24 10:20:29;;;;;;;37.38;9.98;;;;;;;8.61;100.00;101090.69;6207155;23;20019;-86
2022/12/24 10:23:00;;;;;;;41.75;10.23;;;;;;;8.53;100.00;101086.56;6205915;23;20039;-85
2022/12/24 10:25:29;;;;;;;36.88;11.07;;;;;;;8.53;100.00;101094.50;6206491;23;20005;-86
2022/12/24 10:27:57;;;;;;;42.88;11.18;;;;;;;8.46;100.00;101092.13;6207196;23;20252;-85
2022/12/24 10:30:22;;;;;;;36.40;10.18;;;;;;;8.50;100.00;101086.69;6203550;23;20024;-85
2022/12/24 10:32:52;;;;;;;41.30;10.65;;;;;;;8.52;100.00;101085.69;6206475;23;20334;-85
2022/12/24 10:35:33;;;;;;;36.15;10.57;;;;;;;8.55;100.00;101079.41;6203446;23;20008;-84
2022/12/24 10:37:59;;;;;;;35.20;10.25;;;;;;;8.72;100.00;101092.88;6206069;23;20005;-86
2022/12/24 10:40:34;;;;;;;40.60;10.88;;;;;;;8.72;100.00;101088.44;6203455;23;20012;-85
2022/12/24 10:43:00;;;;;;;39.33;9.88;;;;;;;8.88;100.00;101085.19;6205045;23;20008;-85
2022/12/24 10:45:38;;;;;;;41.20;10.63;;;;;;;9.06;100.00;101089.75;6205696;23;20031;-85
2022/12/24 10:48:09;;;;;;;41.40;10.43;;;;;;;9.15;100.00;101086.72;6206963;23;20075;-84
2022/12/24 10:51:04;;;;;;;35.03;9.93;;;;;;;9.15;100.00;101093.81;6205357;23;20009;-85
2022/12/24 10:54:02;;;;;;;36.33;10.65;;;;;;;9.17;100.00;101089.31;6205064;23;20034;-84
2022/12/24 10:56:27;;;;;;;36.78;10.57;;;;;;;9.12;100.00;101080.69;6203740;23;20053;-85
2022/12/24 10:58:54;;;;;;;36.58;10.63;;;;;;;9.13;100.00;101085.94;6206256;23;20414;-85
2022/12/24 11:01:43;;;;;;;35.92;10.75;;;;;;;9.20;100.00;101094.53;6202476;23;20012;-85
2022/12/24 11:04:18;;;;;;;37.55;10.35;;;;;;;9.30;100.00;101079.06;6205490;23;20023;-85
2022/12/24 11:06:56;;;;;;;35.72;11.02;;;;;;;9.44;100.00;101079.31;6209588;23;20032;-85
2022/12/24 11:09:27;;;;;;;36.17;10.70;;;;;;;9.64;100.00;101089.97;6206214;23;20378;-89
2022/12/24 11:11:55;;;;;;;29.40;9.88;;;;;;;9.63;100.00;101082.06;6206775;23;20043;-86
2022/12/24 11:14:20;;;;;;;31.00;10.80;;;;;;;9.67;100.00;101086.34;6209224;23;20004;-87
2022/12/24 11:16:52;;;;;;;29.50;9.82;;;;;;;9.59;100.00;101096.44;6216617;23;20044;-87
2022/12/24 11:19:28;;;;;;;36.20;10.50;;;;;;;9.54;100.00;101093.97;6217116;23;20012;-87
2022/12/24 11:22:16;;;;;;;31.55;10.27;;;;;;;9.55;100.00;101084.19;6228127;23;20009;-86
2022/12/24 11:24:42;;;;;;;33.10;11.02;;;;;;;9.63;100.00;101087.41;6233243;22;19985;-85
2022/12/24 11:27:29;;;;;;;33.78;11.73;;;;;;;9.88;100.00;101093.38;6219680;23;20008;-86
2022/12/24 11:30:21;;;;;;;44.80;13.60;;;;;;;9.97;100.00;101089.44;6208426;23;20004;-86